Observations for MILANO MALPENSA, Italy (LIMC)

LIMC 201950Z 02003KT CAVOK 04/01 Q1025 NOSIG
LIMC 201920Z 01003KT CAVOK 05/01 Q1024 NOSIG
LIMC 201850Z VRB01KT CAVOK 07/03 Q1024 NOSIG
LIMC 201820Z VRB02KT CAVOK 07/03 Q1024 NOSIG
LIMC 201750Z VRB01KT CAVOK 10/04 Q1024 NOSIG
LIMC 201720Z 23003KT 210V270 CAVOK 12/04 Q1023 NOSIG
LIMC 201650Z 25004KT CAVOK 12/04 Q1023 NOSIG
LIMC 201620Z 24005KT CAVOK 12/04 Q1023 NOSIG
LIMC 201550Z 25005KT CAVOK 13/04 Q1023 NOSIG
LIMC 201520Z 24006KT 210V270 CAVOK 13/04 Q1023 NOSIG
LIMC 201450Z 25006KT 220V280 CAVOK 13/04 Q1023 NOSIG
LIMC 201420Z 21005KT 190V250 CAVOK 13/04 Q1023 NOSIG
LIMC 201350Z 22006KT 190V270 CAVOK 13/04 Q1023 NOSIG
LIMC 201320Z 26004KT 200V290 CAVOK 13/04 Q1024 NOSIG
LIMC 201250Z 17004KT 090V230 CAVOK 13/05 Q1024 NOSIG
LIMC 201220Z 14004KT 100V200 CAVOK 12/05 Q1024 NOSIG
LIMC 201150Z 14004KT 110V220 CAVOK 12/05 Q1024 NOSIG
LIMC 201120Z 18003KT 120V220 CAVOK 11/05 Q1025 NOSIG
LIMC 201050Z VRB02KT CAVOK 10/05 Q1025 NOSIG
LIMC 201020Z VRB02KT 8000 NSC 09/05 Q1025 NOSIG 
LIMC 200950Z VRB02KT 8000 NSC 09/05 Q1025 NOSIG 
LIMC 200920Z VRB02KT 7000 NSC 08/05 Q1025 NOSIG 
LIMC 200850Z VRB02KT 5000 BR NSC 06/04 Q1025 NOSIG  
LIMC 200820Z VRB02KT 5000 BR NSC 05/04 Q1024 NOSIG  
LIMC 200750Z 03002KT 5000 BR NSC 02/02 Q1024 NOSIG  
LIMC 200720Z 04003KT 5000 BR NSC 01/00 Q1024 NOSIG  
LIMC 200650Z 04003KT 6000 R35R/P1500N R17L/1000N R35L/P1500N BCFG NSC M00/M00 Q1023 NOSIG   
LIMC 200620Z 03003KT 6000 BCFG NSC M01/M01 Q1023 NOSIG  
LIMC 200550Z 03003KT 6000 BCFG NSC M01/M01 Q1023 NOSIG  
LIMC 200520Z VRB02KT 7000 BCFG NSC 00/M00 Q1023 NOSIG   
LIMC 200450Z 03002KT 9999 BCFG NSC M00/M01 Q1023 NOSIG  
LIMC 200420Z 02005KT 9999 BCFG NSC M01/M02 Q1023 NOSIG  
LIMC 200350Z 02005KT 9999 BCFG NSC M01/M02 Q1023 NOSIG  
LIMC 200320Z 01005KT 9999 BCFG NSC M00/M01 Q1022 NOSIG  
LIMC 200250Z 01005KT 9999 BCFG NSC M01/M01 Q1022 NOSIG  
LIMC 200220Z 02004KT 9999 BCFG NSC 00/M00 Q1023 NOSIG   
LIMC 200150Z 02004KT 9999 BCFG NSC 00/M00 Q1023 NOSIG   
LIMC 200050Z /////KT CAVOK ///// Q//// NOSIG
LIMC 200050Z /////KT CAVOK ///// NOSIG
LIMC 192350Z /////KT CAVOK ///// Q//// NOSIG
LIMC 192350Z /////KT CAVOK ///// NOSIG
LIMC 192320Z 03004KT CAVOK 01/01 Q1022 NOSIG
LIMC 192250Z 02002KT CAVOK 02/00 Q1023 NOSIG
LIMC 192220Z VRB02KT CAVOK 01/00 Q1023 NOSIG
LIMC 192150Z VRB01KT CAVOK 03/02 Q1022 NOSIG
LIMC 192120Z VRB02KT CAVOK 03/01 Q1022 NOSIG
LIMC 192050Z 02003KT CAVOK 04/02 Q1022 NOSIG
LIMC 192020Z 09002KT CAVOK 06/03 Q1022 NOSIG
LIMC 191950Z VRB02KT CAVOK 08/04 Q1022 NOSIG
LIMC 191920Z 21006KT 190V250 CAVOK 10/04 Q1022 NOSIG